createdAt,value
2016-11-29T00:00:32.784Z,0
2016-11-29T00:01:11.572Z,0
2016-11-29T00:01:50.352Z,0
2016-11-29T00:02:29.130Z,0
2016-11-29T00:03:07.911Z,0
2016-11-29T00:03:46.687Z,0
2016-11-29T00:04:25.471Z,0
2016-11-29T00:05:04.247Z,0
2016-11-29T00:05:43.059Z,0
2016-11-29T00:06:21.835Z,0
2016-11-29T00:07:00.618Z,0
2016-11-29T00:07:39.399Z,0
2016-11-29T00:08:18.184Z,0
2016-11-29T00:08:56.964Z,0
2016-11-29T00:09:35.741Z,0
2016-11-29T00:10:14.520Z,0
2016-11-29T00:10:53.301Z,0
2016-11-29T00:11:32.077Z,0
2016-11-29T00:12:10.860Z,0
2016-11-29T00:12:49.643Z,0
2016-11-29T00:13:28.440Z,0
2016-11-29T00:14:07.214Z,0
2016-11-29T00:14:45.994Z,0
2016-11-29T00:15:24.885Z,0
2016-11-29T00:16:03.674Z,0
2016-11-29T00:16:42.456Z,0
2016-11-29T00:17:21.247Z,0
2016-11-29T00:18:00.040Z,0
2016-11-29T00:18:38.826Z,0
2016-11-29T00:19:17.610Z,0
2016-11-29T00:19:56.396Z,0
2016-11-29T00:20:35.176Z,0
2016-11-29T00:21:13.949Z,0
2016-11-29T00:21:52.729Z,0
2016-11-29T00:22:31.507Z,0
2016-11-29T00:23:10.289Z,0
2016-11-29T00:23:49.068Z,0
2016-11-29T00:24:27.852Z,0
2016-11-29T00:25:06.638Z,0
2016-11-29T00:25:45.418Z,0
2016-11-29T00:26:24.197Z,0
2016-11-29T00:27:02.978Z,0
2016-11-29T00:27:41.762Z,0
2016-11-29T00:28:20.546Z,0
2016-11-29T00:28:59.331Z,0
2016-11-29T00:29:38.117Z,0
2016-11-29T00:30:16.908Z,0
2016-11-29T00:30:55.689Z,0
2016-11-29T00:31:34.477Z,0
2016-11-29T00:32:13.330Z,0
2016-11-29T00:32:52.106Z,0
2016-11-29T00:33:30.919Z,0
2016-11-29T00:34:09.696Z,0
2016-11-29T00:34:48.473Z,0
2016-11-29T00:35:27.255Z,0
2016-11-29T00:36:06.033Z,0
2016-11-29T00:36:44.815Z,0
2016-11-29T00:37:23.617Z,0
2016-11-29T00:38:02.398Z,0
2016-11-29T00:38:41.175Z,0
2016-11-29T00:39:19.957Z,0
2016-11-29T00:39:58.764Z,0
2016-11-29T00:40:37.551Z,0
2016-11-29T00:41:16.341Z,0
2016-11-29T00:41:55.120Z,0
2016-11-29T00:42:33.898Z,0
2016-11-29T00:43:12.686Z,0
2016-11-29T00:43:51.501Z,0
2016-11-29T00:44:30.283Z,0
2016-11-29T00:45:09.083Z,0
2016-11-29T00:45:47.861Z,0
2016-11-29T00:46:26.636Z,0
2016-11-29T00:47:05.449Z,0
2016-11-29T00:47:44.232Z,0
2016-11-29T00:48:23.019Z,0
2016-11-29T00:49:01.801Z,0
2016-11-29T00:49:40.581Z,0
2016-11-29T00:50:19.362Z,0
2016-11-29T00:50:58.148Z,0
2016-11-29T00:51:36.929Z,0
2016-11-29T00:52:15.709Z,0
2016-11-29T00:52:54.490Z,0
2016-11-29T00:53:33.275Z,0
2016-11-29T00:54:12.055Z,0
2016-11-29T00:54:50.833Z,0
2016-11-29T00:55:29.617Z,0
2016-11-29T00:56:08.750Z,0
2016-11-29T00:56:47.532Z,0
2016-11-29T00:57:26.317Z,0
2016-11-29T00:58:05.098Z,0
2016-11-29T00:58:43.880Z,0
2016-11-29T00:59:23.014Z,0
2016-11-29T01:00:01.803Z,0
2016-11-29T01:00:40.588Z,0
2016-11-29T01:01:19.367Z,0
2016-11-29T01:01:58.160Z,0
2016-11-29T01:02:36.943Z,0
2016-11-29T01:03:15.724Z,0
2016-11-29T01:03:54.505Z,0
2016-11-29T01:04:33.286Z,0
2016-11-29T01:05:12.071Z,0
2016-11-29T01:05:50.958Z,0
2016-11-29T01:06:29.738Z,0
2016-11-29T01:07:08.882Z,0
2016-11-29T01:07:47.668Z,0
2016-11-29T01:08:26.450Z,0
2016-11-29T01:09:05.233Z,0
2016-11-29T01:09:44.015Z,0
2016-11-29T01:10:22.793Z,0
2016-11-29T01:11:01.574Z,0
2016-11-29T01:11:40.355Z,0
2016-11-29T01:12:19.493Z,0
2016-11-29T01:12:58.632Z,0
2016-11-29T01:13:37.415Z,0
2016-11-29T01:14:16.201Z,0
2016-11-29T01:14:55.012Z,0
2016-11-29T01:15:33.795Z,0
2016-11-29T01:16:12.580Z,0
2016-11-29T01:16:51.360Z,0
2016-11-29T01:17:30.140Z,0
2016-11-29T01:18:08.952Z,0
2016-11-29T01:18:47.735Z,0
2016-11-29T01:19:26.515Z,0
2016-11-29T01:20:05.328Z,0
2016-11-29T01:20:44.114Z,0
2016-11-29T01:21:22.891Z,0
2016-11-29T01:22:01.678Z,0
2016-11-29T01:22:40.837Z,0
2016-11-29T01:23:19.647Z,0
2016-11-29T01:23:58.424Z,0
2016-11-29T01:24:37.206Z,0
2016-11-29T01:25:15.988Z,0
2016-11-29T01:25:54.768Z,0
2016-11-29T01:26:33.552Z,0
2016-11-29T01:27:12.334Z,0
2016-11-29T01:27:51.111Z,0
2016-11-29T01:28:29.890Z,0
2016-11-29T01:29:08.671Z,0
2016-11-29T01:29:47.448Z,0
2016-11-29T01:30:26.234Z,0
2016-11-29T01:31:05.017Z,0
2016-11-29T01:31:43.797Z,0
2016-11-29T01:32:22.575Z,0
2016-11-29T01:33:01.356Z,0
2016-11-29T01:33:40.133Z,0
2016-11-29T01:34:18.917Z,0
2016-11-29T01:34:57.697Z,0
2016-11-29T01:35:36.477Z,0
2016-11-29T01:36:15.258Z,0
2016-11-29T01:36:54.046Z,0
2016-11-29T01:37:32.830Z,0
2016-11-29T01:38:11.607Z,0
2016-11-29T01:38:50.386Z,0
2016-11-29T01:39:29.165Z,0
2016-11-29T01:40:07.944Z,0
2016-11-29T01:40:46.727Z,0
2016-11-29T01:41:25.511Z,0
2016-11-29T01:42:04.290Z,0
2016-11-29T01:42:43.074Z,0
2016-11-29T01:43:21.851Z,0
2016-11-29T01:44:00.628Z,0
2016-11-29T01:44:39.407Z,0
2016-11-29T01:45:18.191Z,0
2016-11-29T01:45:56.969Z,0
2016-11-29T01:46:35.782Z,0
2016-11-29T01:47:14.917Z,0
2016-11-29T01:47:53.693Z,0
2016-11-29T01:48:32.474Z,0
2016-11-29T01:49:11.257Z,0
2016-11-29T01:49:50.037Z,0
2016-11-29T01:50:28.817Z,0
2016-11-29T01:51:07.625Z,0
2016-11-29T01:51:46.406Z,0
2016-11-29T01:52:25.182Z,0
2016-11-29T01:53:03.957Z,0
2016-11-29T01:53:42.734Z,0
2016-11-29T01:54:21.513Z,0
2016-11-29T01:55:00.325Z,0
2016-11-29T01:55:39.102Z,0
2016-11-29T01:56:17.878Z,0
2016-11-29T01:56:56.662Z,0
2016-11-29T01:57:35.447Z,0
2016-11-29T01:58:14.231Z,0
2016-11-29T01:58:53.009Z,0
2016-11-29T01:59:31.787Z,0
2016-11-29T02:00:10.566Z,0
2016-11-29T02:00:49.343Z,0
2016-11-29T02:01:28.121Z,0
2016-11-29T02:02:06.902Z,0
2016-11-29T02:02:45.679Z,0
2016-11-29T02:03:24.458Z,0
2016-11-29T02:04:03.239Z,0
2016-11-29T02:04:42.046Z,0
2016-11-29T02:05:20.824Z,0
2016-11-29T02:05:59.602Z,0
2016-11-29T02:06:38.383Z,0
2016-11-29T02:07:17.165Z,0
2016-11-29T02:07:55.945Z,0
2016-11-29T02:08:34.731Z,0
2016-11-29T02:09:13.519Z,0
2016-11-29T02:09:52.296Z,0
2016-11-29T02:10:31.077Z,0
2016-11-29T02:11:09.860Z,0
2016-11-29T02:11:48.647Z,0
2016-11-29T02:12:27.780Z,0
2016-11-29T02:13:06.555Z,0
2016-11-29T02:13:45.335Z,0
2016-11-29T02:14:24.117Z,0
2016-11-29T02:15:02.894Z,0
2016-11-29T02:15:42.382Z,0
2016-11-29T02:16:21.166Z,0
2016-11-29T02:16:59.956Z,0
2016-11-29T02:17:38.739Z,0
2016-11-29T02:18:17.521Z,0
2016-11-29T02:18:56.299Z,0
2016-11-29T02:19:35.433Z,0
2016-11-29T02:20:14.207Z,0
2016-11-29T02:20:52.991Z,0
2016-11-29T02:21:31.769Z,0
2016-11-29T02:22:10.555Z,0
2016-11-29T02:22:49.335Z,0
2016-11-29T02:23:28.118Z,0
2016-11-29T02:24:07.253Z,0
2016-11-29T02:24:46.046Z,0
2016-11-29T02:25:24.850Z,0
2016-11-29T02:26:03.629Z,0
2016-11-29T02:26:42.411Z,0
2016-11-29T02:27:21.188Z,0
2016-11-29T02:27:59.968Z,0
2016-11-29T02:28:38.752Z,0
2016-11-29T02:29:17.546Z,0
2016-11-29T02:29:56.327Z,0
2016-11-29T02:30:35.107Z,0
2016-11-29T02:31:13.908Z,0
2016-11-29T02:31:52.693Z,0
2016-11-29T02:32:31.480Z,0
2016-11-29T02:33:10.259Z,0
2016-11-29T02:33:49.037Z,0
2016-11-29T02:34:27.817Z,0
2016-11-29T02:35:06.599Z,0
2016-11-29T02:35:45.383Z,0
2016-11-29T02:36:24.517Z,0
2016-11-29T02:37:03.297Z,0
2016-11-29T02:37:42.077Z,0
2016-11-29T02:38:20.859Z,0
2016-11-29T02:38:59.646Z,0
2016-11-29T02:39:38.426Z,0
2016-11-29T02:40:17.206Z,0
2016-11-29T02:40:55.989Z,0
2016-11-29T02:41:35.131Z,0
2016-11-29T02:42:13.913Z,0
2016-11-29T02:42:52.696Z,0
2016-11-29T02:43:31.473Z,0
2016-11-29T02:44:10.253Z,0
2016-11-29T02:44:49.031Z,0
2016-11-29T02:45:27.843Z,0
2016-11-29T02:46:06.621Z,0
2016-11-29T02:46:45.404Z,0
2016-11-29T02:47:24.186Z,0
2016-11-29T02:48:02.969Z,0
2016-11-29T02:48:41.748Z,0
2016-11-29T02:49:20.528Z,0
2016-11-29T02:49:59.305Z,0
2016-11-29T02:50:38.084Z,0
2016-11-29T02:51:16.860Z,0
2016-11-29T02:51:55.635Z,0
2016-11-29T02:52:34.411Z,0
2016-11-29T02:53:13.548Z,0
2016-11-29T02:53:52.353Z,0
2016-11-29T02:54:31.513Z,0
2016-11-29T02:55:10.288Z,0
2016-11-29T02:55:49.063Z,0
2016-11-29T02:56:27.843Z,0
2016-11-29T02:57:06.661Z,0
2016-11-29T02:57:45.436Z,0
2016-11-29T02:58:24.220Z,0
2016-11-29T02:59:03.003Z,0
2016-11-29T02:59:41.782Z,0
2016-11-29T03:00:20.565Z,0
2016-11-29T03:00:59.344Z,0
2016-11-29T03:01:38.126Z,0
2016-11-29T03:02:16.905Z,0
2016-11-29T03:02:55.685Z,0
2016-11-29T03:03:34.462Z,0
2016-11-29T03:04:13.243Z,0
2016-11-29T03:04:52.018Z,0
2016-11-29T03:05:30.797Z,0
2016-11-29T03:06:09.577Z,0
2016-11-29T03:06:48.357Z,0
2016-11-29T03:07:27.137Z,0
2016-11-29T03:08:05.916Z,0
2016-11-29T03:08:44.733Z,0
2016-11-29T03:09:23.513Z,0
2016-11-29T03:10:02.289Z,0
2016-11-29T03:10:41.065Z,0
2016-11-29T03:11:19.840Z,0
2016-11-29T03:11:58.622Z,0
2016-11-29T03:12:37.408Z,0
2016-11-29T03:13:16.195Z,0
2016-11-29T03:13:54.972Z,0
2016-11-29T03:14:33.753Z,0
2016-11-29T03:15:12.538Z,0
2016-11-29T03:15:51.348Z,0
2016-11-29T03:16:30.127Z,0
2016-11-29T03:17:08.918Z,0
2016-11-29T03:17:47.703Z,0
2016-11-29T03:18:26.487Z,0
2016-11-29T03:19:05.271Z,0
2016-11-29T03:19:44.402Z,0
2016-11-29T03:20:23.182Z,0
2016-11-29T03:21:01.957Z,0
2016-11-29T03:21:40.765Z,0
2016-11-29T03:22:19.538Z,0
2016-11-29T03:22:58.320Z,0
2016-11-29T03:23:37.102Z,0
2016-11-29T03:24:15.910Z,0
2016-11-29T03:24:54.693Z,0
2016-11-29T03:25:33.469Z,0
2016-11-29T03:26:12.250Z,0
2016-11-29T03:26:51.031Z,0
2016-11-29T03:27:29.804Z,0
2016-11-29T03:28:08.587Z,0
2016-11-29T03:28:47.369Z,0
2016-11-29T03:29:26.157Z,0
2016-11-29T03:30:05.293Z,0
2016-11-29T03:30:44.076Z,0
2016-11-29T03:31:22.861Z,0
2016-11-29T03:32:01.643Z,0
2016-11-29T03:32:40.423Z,0
2016-11-29T03:33:19.199Z,0
2016-11-29T03:33:57.986Z,0
2016-11-29T03:34:36.780Z,0
2016-11-29T03:35:15.558Z,0
2016-11-29T03:35:54.348Z,0
2016-11-29T03:36:33.131Z,0
2016-11-29T03:37:11.912Z,0
2016-11-29T03:37:50.697Z,0
2016-11-29T03:38:29.833Z,0
2016-11-29T03:39:08.608Z,0
2016-11-29T03:39:47.394Z,0
2016-11-29T03:40:26.171Z,0
2016-11-29T03:41:04.954Z,0
2016-11-29T03:41:43.733Z,0
2016-11-29T03:42:22.511Z,0
2016-11-29T03:43:01.291Z,0
2016-11-29T03:43:40.067Z,0
2016-11-29T03:44:18.845Z,0
2016-11-29T03:44:57.629Z,0
2016-11-29T03:45:36.413Z,0
2016-11-29T03:46:15.198Z,0
2016-11-29T03:46:53.978Z,0
2016-11-29T03:47:32.761Z,0
2016-11-29T03:48:11.544Z,0
2016-11-29T03:48:50.323Z,0
2016-11-29T03:49:29.104Z,0
2016-11-29T03:50:08.240Z,0
2016-11-29T03:50:47.014Z,0
2016-11-29T03:51:25.792Z,0
2016-11-29T03:52:04.571Z,0
2016-11-29T03:52:43.350Z,0
2016-11-29T03:53:22.136Z,0
2016-11-29T03:54:00.924Z,0
2016-11-29T03:54:39.706Z,0
2016-11-29T03:55:18.488Z,0
2016-11-29T03:55:57.269Z,0
2016-11-29T03:56:36.054Z,0
2016-11-29T03:57:14.833Z,0
2016-11-29T03:57:53.617Z,0
2016-11-29T03:58:32.392Z,0
2016-11-29T03:59:11.173Z,0
2016-11-29T03:59:49.951Z,0
2016-11-29T04:00:28.727Z,0
2016-11-29T04:01:07.504Z,0
2016-11-29T04:01:46.294Z,0
2016-11-29T04:02:25.073Z,0
2016-11-29T04:03:03.851Z,0
2016-11-29T04:03:42.630Z,0
2016-11-29T04:04:21.411Z,0
2016-11-29T04:05:00.186Z,0
2016-11-29T04:05:38.963Z,0
2016-11-29T04:06:17.742Z,0
2016-11-29T04:06:56.523Z,0
2016-11-29T04:07:35.332Z,0
2016-11-29T04:08:14.116Z,0
2016-11-29T04:08:52.898Z,0
2016-11-29T04:09:31.712Z,0
2016-11-29T04:10:10.505Z,0
2016-11-29T04:10:49.287Z,0
2016-11-29T04:11:28.066Z,0
2016-11-29T04:12:06.850Z,0
2016-11-29T04:12:45.629Z,0
2016-11-29T04:13:24.418Z,0
2016-11-29T04:14:03.197Z,0
2016-11-29T04:14:41.978Z,0
2016-11-29T04:15:20.760Z,0
2016-11-29T04:15:59.541Z,0
2016-11-29T04:16:38.318Z,0
2016-11-29T04:17:17.100Z,0
2016-11-29T04:17:55.886Z,0
2016-11-29T04:18:34.671Z,0
2016-11-29T04:19:13.451Z,0
2016-11-29T04:19:52.229Z,0
2016-11-29T04:20:31.011Z,0
2016-11-29T04:21:09.794Z,0
2016-11-29T04:21:48.583Z,0
2016-11-29T04:22:27.368Z,0
2016-11-29T04:23:06.153Z,0
2016-11-29T04:23:44.931Z,0
2016-11-29T04:24:23.818Z,0
2016-11-29T04:25:02.598Z,0
2016-11-29T04:25:41.377Z,0
2016-11-29T04:26:20.157Z,0
2016-11-29T04:26:59.292Z,0
2016-11-29T04:27:38.073Z,0
2016-11-29T04:28:16.856Z,0
2016-11-29T04:28:55.638Z,0
2016-11-29T04:29:34.413Z,0
2016-11-29T04:30:13.200Z,0
2016-11-29T04:30:51.979Z,0
2016-11-29T04:31:30.760Z,0
2016-11-29T04:32:09.541Z,0
2016-11-29T04:32:48.322Z,0
2016-11-29T04:33:27.103Z,0
2016-11-29T04:34:05.882Z,0
2016-11-29T04:34:44.665Z,0
2016-11-29T04:35:23.453Z,0
2016-11-29T04:36:02.235Z,0
2016-11-29T04:36:41.011Z,0
2016-11-29T04:37:19.790Z,0
2016-11-29T04:37:58.573Z,0
2016-11-29T04:38:37.383Z,0
2016-11-29T04:39:16.163Z,0
2016-11-29T04:39:54.946Z,0
2016-11-29T04:40:33.725Z,0
2016-11-29T04:41:12.510Z,0
2016-11-29T04:41:51.285Z,0
2016-11-29T04:42:30.064Z,0
2016-11-29T04:43:08.845Z,0
2016-11-29T04:43:47.651Z,0
2016-11-29T04:44:26.428Z,0
2016-11-29T04:45:05.210Z,0
2016-11-29T04:45:43.999Z,0
2016-11-29T04:46:22.791Z,0
2016-11-29T04:47:01.570Z,0
2016-11-29T04:47:40.714Z,0
2016-11-29T04:48:19.531Z,0
2016-11-29T04:48:58.348Z,0
2016-11-29T04:49:37.134Z,0
2016-11-29T04:50:15.909Z,0
2016-11-29T04:50:54.686Z,0
2016-11-29T04:51:33.464Z,0
2016-11-29T04:52:12.245Z,0
2016-11-29T04:52:51.023Z,0
2016-11-29T04:53:29.797Z,0
2016-11-29T04:54:08.603Z,0
2016-11-29T04:54:47.386Z,0
2016-11-29T04:55:26.165Z,0
2016-11-29T04:56:04.943Z,0
2016-11-29T04:56:43.754Z,0
2016-11-29T04:57:22.531Z,0
2016-11-29T04:58:01.313Z,0
2016-11-29T04:58:40.090Z,0
2016-11-29T04:59:18.869Z,0
2016-11-29T04:59:57.646Z,0
2016-11-29T05:00:36.431Z,0
2016-11-29T05:01:15.207Z,0
2016-11-29T05:01:53.987Z,0
2016-11-29T05:02:32.768Z,0
2016-11-29T05:03:11.551Z,0
2016-11-29T05:03:50.331Z,0
2016-11-29T05:04:29.114Z,0
2016-11-29T05:05:07.891Z,0
2016-11-29T05:05:46.673Z,0
2016-11-29T05:06:25.453Z,0
2016-11-29T05:07:04.232Z,0
2016-11-29T05:07:43.056Z,0
2016-11-29T05:08:21.836Z,0
2016-11-29T05:09:00.615Z,0
2016-11-29T05:09:39.421Z,0
2016-11-29T05:10:18.203Z,0
2016-11-29T05:10:56.989Z,0
2016-11-29T05:11:35.766Z,0
2016-11-29T05:12:14.546Z,0
2016-11-29T05:12:53.323Z,0
2016-11-29T05:13:32.105Z,0
2016-11-29T05:14:10.915Z,0
2016-11-29T05:14:49.692Z,0
2016-11-29T05:15:28.474Z,0
2016-11-29T05:16:07.258Z,0
2016-11-29T05:16:46.032Z,0
2016-11-29T05:17:24.818Z,0
2016-11-29T05:18:03.596Z,0
2016-11-29T05:18:42.375Z,0
2016-11-29T05:19:21.155Z,0
2016-11-29T05:19:59.935Z,0
2016-11-29T05:20:38.713Z,0
2016-11-29T05:21:17.495Z,0
2016-11-29T05:21:56.275Z,0
2016-11-29T05:22:35.062Z,0
2016-11-29T05:23:13.838Z,0
2016-11-29T05:23:52.622Z,0
2016-11-29T05:24:31.403Z,0
2016-11-29T05:25:10.180Z,0
2016-11-29T05:25:48.959Z,0
2016-11-29T05:26:27.735Z,0
2016-11-29T05:27:06.512Z,0
2016-11-29T05:27:45.294Z,0
2016-11-29T05:28:24.100Z,0
2016-11-29T05:29:02.883Z,0
2016-11-29T05:29:41.658Z,0
2016-11-29T05:30:20.440Z,0
2016-11-29T05:30:59.222Z,0
2016-11-29T05:31:38.003Z,0
2016-11-29T05:32:16.782Z,0
2016-11-29T05:32:55.562Z,0
2016-11-29T05:33:34.342Z,0
2016-11-29T05:34:13.121Z,0
2016-11-29T05:34:51.911Z,0
2016-11-29T05:35:30.697Z,0
2016-11-29T05:36:09.476Z,0
2016-11-29T05:36:48.253Z,0
2016-11-29T05:37:27.033Z,0
2016-11-29T05:38:05.815Z,0
2016-11-29T05:38:44.592Z,0
2016-11-29T05:39:23.380Z,0
2016-11-29T05:40:02.164Z,0
2016-11-29T05:40:40.942Z,0
2016-11-29T05:41:19.731Z,0
2016-11-29T05:41:58.512Z,0
2016-11-29T05:42:37.287Z,0
2016-11-29T05:43:16.068Z,0
2016-11-29T05:43:54.849Z,0
2016-11-29T05:44:33.626Z,0
2016-11-29T05:45:12.416Z,0
2016-11-29T05:45:51.212Z,0
2016-11-29T05:46:29.992Z,0
2016-11-29T05:47:08.775Z,0
2016-11-29T05:47:47.551Z,0
2016-11-29T05:48:26.334Z,0
2016-11-29T05:49:05.116Z,0
2016-11-29T05:49:43.898Z,0
2016-11-29T05:50:22.675Z,0
2016-11-29T05:51:01.451Z,0
2016-11-29T05:51:40.232Z,0
2016-11-29T05:52:19.017Z,0
2016-11-29T05:52:57.835Z,0
2016-11-29T05:53:36.615Z,0
2016-11-29T05:54:15.393Z,0
2016-11-29T05:54:54.178Z,0
2016-11-29T05:55:32.951Z,0
2016-11-29T05:56:11.739Z,0
2016-11-29T05:56:50.521Z,0
2016-11-29T05:57:29.307Z,0
2016-11-29T05:58:08.088Z,0
2016-11-29T05:58:46.867Z,0
2016-11-29T05:59:25.651Z,0
2016-11-29T06:00:04.433Z,0
2016-11-29T06:00:43.231Z,0
2016-11-29T06:01:22.007Z,0
2016-11-29T06:02:00.791Z,0
2016-11-29T06:02:39.575Z,0
2016-11-29T06:03:18.372Z,0
2016-11-29T06:03:57.154Z,0
2016-11-29T06:04:35.938Z,0
2016-11-29T06:05:14.715Z,0
2016-11-29T06:05:53.491Z,0
2016-11-29T06:06:32.272Z,0
2016-11-29T06:07:11.058Z,0
2016-11-29T06:07:49.841Z,0
2016-11-29T06:08:28.634Z,0
2016-11-29T06:09:07.421Z,0
2016-11-29T06:09:46.200Z,0
2016-11-29T06:10:24.977Z,0
2016-11-29T06:11:03.757Z,0
2016-11-29T06:11:42.533Z,0
2016-11-29T06:12:21.314Z,0
2016-11-29T06:13:00.097Z,0
2016-11-29T06:13:38.877Z,0
2016-11-29T06:14:17.659Z,0
2016-11-29T06:14:56.444Z,0
2016-11-29T06:15:35.227Z,0
2016-11-29T06:16:14.006Z,0
2016-11-29T06:16:52.785Z,0
2016-11-29T06:17:31.590Z,0
2016-11-29T06:18:10.368Z,0
2016-11-29T06:18:49.146Z,0
2016-11-29T06:19:27.926Z,0
2016-11-29T06:20:06.706Z,0
2016-11-29T06:20:45.485Z,0
2016-11-29T06:21:24.619Z,0
2016-11-29T06:22:03.405Z,0
2016-11-29T06:22:42.196Z,0
2016-11-29T06:23:21.331Z,0
2016-11-29T06:24:00.107Z,0
2016-11-29T06:24:38.887Z,0
2016-11-29T06:25:17.668Z,0
2016-11-29T06:25:56.452Z,0
2016-11-29T06:26:35.229Z,0
2016-11-29T06:27:14.008Z,0
2016-11-29T06:27:52.783Z,0
2016-11-29T06:28:31.570Z,0
2016-11-29T06:29:10.347Z,0
2016-11-29T06:29:49.126Z,0
2016-11-29T06:30:27.907Z,0
2016-11-29T06:31:06.685Z,0
2016-11-29T06:31:45.487Z,0
2016-11-29T06:32:24.268Z,4
2016-11-29T06:33:03.049Z,4
2016-11-29T06:33:41.828Z,0
2016-11-29T06:34:20.632Z,0
2016-11-29T06:34:59.411Z,0
2016-11-29T06:35:38.193Z,0
2016-11-29T06:36:16.971Z,0
2016-11-29T06:36:55.754Z,4
2016-11-29T06:37:34.530Z,4
2016-11-29T06:38:13.306Z,0
2016-11-29T06:38:52.089Z,0
2016-11-29T06:39:30.867Z,4
2016-11-29T06:40:09.643Z,4
2016-11-29T06:40:48.430Z,4
2016-11-29T06:41:27.555Z,4
2016-11-29T06:42:06.342Z,4
2016-11-29T06:42:45.119Z,4
2016-11-29T06:43:23.899Z,8
2016-11-29T06:44:02.679Z,4
2016-11-29T06:44:41.457Z,8
2016-11-29T06:45:20.241Z,8
2016-11-29T06:45:59.022Z,8
2016-11-29T06:46:37.799Z,8
2016-11-29T06:47:16.579Z,8
2016-11-29T06:47:55.365Z,12
2016-11-29T06:48:34.146Z,12
2016-11-29T06:49:12.927Z,12
2016-11-29T06:49:51.707Z,12
2016-11-29T06:50:30.493Z,16
2016-11-29T06:51:09.271Z,16
2016-11-29T06:51:48.079Z,20
2016-11-29T06:52:26.867Z,20
2016-11-29T06:53:05.644Z,24
2016-11-29T06:53:44.429Z,24
2016-11-29T06:54:23.235Z,24
2016-11-29T06:55:02.021Z,28
2016-11-29T06:55:40.805Z,32
2016-11-29T06:56:19.582Z,32
2016-11-29T06:56:58.751Z,40
2016-11-29T06:57:37.533Z,40
2016-11-29T06:58:16.314Z,44
2016-11-29T06:58:55.099Z,48
2016-11-29T06:59:33.874Z,52
2016-11-29T07:00:12.652Z,52
2016-11-29T07:00:51.433Z,60
2016-11-29T07:01:30.211Z,64
2016-11-29T07:02:08.994Z,64
2016-11-29T07:02:47.772Z,72
2016-11-29T07:03:26.551Z,76
2016-11-29T07:04:05.333Z,80
2016-11-29T07:04:44.108Z,88
2016-11-29T07:05:22.886Z,96
2016-11-29T07:06:01.669Z,100
2016-11-29T07:06:40.456Z,104
2016-11-29T07:07:19.239Z,108
2016-11-29T07:07:58.015Z,120
2016-11-29T07:08:36.795Z,124
2016-11-29T07:09:15.569Z,132
2016-11-29T07:09:54.363Z,140
2016-11-29T07:10:33.145Z,148
2016-11-29T07:11:11.925Z,156
2016-11-29T07:11:50.702Z,160
2016-11-29T07:12:29.873Z,168
2016-11-29T07:13:08.649Z,176
2016-11-29T07:13:47.431Z,188
2016-11-29T07:14:26.212Z,196
2016-11-29T07:15:04.993Z,204
2016-11-29T07:15:43.769Z,212
2016-11-29T07:16:22.546Z,224
2016-11-29T07:17:01.682Z,232
2016-11-29T07:17:40.461Z,244
2016-11-29T07:18:19.247Z,252
2016-11-29T07:18:58.036Z,264
2016-11-29T07:19:36.817Z,276
2016-11-29T07:20:15.596Z,284
2016-11-29T07:20:54.378Z,300
2016-11-29T07:21:33.187Z,308
2016-11-29T07:22:11.968Z,320
2016-11-29T07:22:50.745Z,336
2016-11-29T07:23:29.555Z,344
2016-11-29T07:24:08.334Z,356
2016-11-29T07:24:47.114Z,368
2016-11-29T07:25:25.898Z,384
2016-11-29T07:26:04.674Z,396
2016-11-29T07:26:43.461Z,408
2016-11-29T07:27:22.236Z,424
2016-11-29T07:28:01.018Z,440
2016-11-29T07:28:40.170Z,452
2016-11-29T07:29:18.947Z,464
2016-11-29T07:29:57.760Z,480
2016-11-29T07:30:36.539Z,492
2016-11-29T07:31:15.343Z,508
2016-11-29T07:31:54.125Z,524
2016-11-29T07:32:32.915Z,540
2016-11-29T07:33:11.702Z,556
2016-11-29T07:33:50.485Z,568
2016-11-29T07:34:29.268Z,584
2016-11-29T07:35:08.045Z,600
2016-11-29T07:35:46.821Z,616
2016-11-29T07:36:25.602Z,632
2016-11-29T07:37:04.456Z,644
2016-11-29T07:37:43.232Z,668
2016-11-29T07:38:22.013Z,704
2016-11-29T07:39:00.794Z,768
2016-11-29T07:39:39.580Z,860
2016-11-29T07:40:18.357Z,972
2016-11-29T07:40:57.144Z,1052
2016-11-29T07:41:35.923Z,1040
2016-11-29T07:42:14.699Z,976
2016-11-29T07:42:53.495Z,940
2016-11-29T07:43:32.278Z,1020
2016-11-29T07:44:11.057Z,1180
2016-11-29T07:44:49.843Z,1444
2016-11-29T07:45:28.620Z,1736
2016-11-29T07:46:07.398Z,1952
2016-11-29T07:46:46.180Z,2052
2016-11-29T07:47:24.962Z,2120
2016-11-29T07:48:03.739Z,2196
2016-11-29T07:48:42.523Z,2268
2016-11-29T07:49:21.307Z,2340
2016-11-29T07:50:00.086Z,2396
2016-11-29T07:50:38.869Z,2448
2016-11-29T07:51:17.676Z,2512
2016-11-29T07:51:56.839Z,2592
2016-11-29T07:52:35.623Z,2672
2016-11-29T07:53:14.402Z,2736
2016-11-29T07:53:53.189Z,2808
2016-11-29T07:54:31.964Z,2868
2016-11-29T07:55:11.098Z,2824
2016-11-29T07:55:49.881Z,3016
2016-11-29T07:56:28.665Z,3092
2016-11-29T07:57:07.447Z,3176
2016-11-29T07:57:46.226Z,3256
2016-11-29T07:58:25.029Z,3328
2016-11-29T07:59:03.807Z,3388
2016-11-29T07:59:42.622Z,3476
2016-11-29T08:00:21.405Z,3464
2016-11-29T08:01:00.196Z,3604
2016-11-29T08:01:38.994Z,3688
2016-11-29T08:02:17.776Z,3744
2016-11-29T08:02:56.561Z,3788
2016-11-29T08:03:35.343Z,3800
2016-11-29T08:04:14.128Z,3956
2016-11-29T08:04:52.905Z,4036
2016-11-29T08:05:31.680Z,4072
2016-11-29T08:06:10.460Z,4136
2016-11-29T08:06:49.240Z,4232
2016-11-29T08:07:28.022Z,4328
2016-11-29T08:08:06.804Z,4404
2016-11-29T08:08:45.582Z,4440
2016-11-29T08:09:24.364Z,4484
2016-11-29T08:10:03.140Z,4512
2016-11-29T08:10:41.924Z,4560
2016-11-29T08:11:20.706Z,4628
2016-11-29T08:11:59.486Z,4680
2016-11-29T08:12:38.267Z,4752
2016-11-29T08:13:17.050Z,4868
2016-11-29T08:13:55.830Z,4988
2016-11-29T08:14:34.645Z,5060
2016-11-29T08:15:13.425Z,5100
2016-11-29T08:15:52.203Z,5140
2016-11-29T08:16:30.990Z,5224
2016-11-29T08:17:09.772Z,5292
2016-11-29T08:17:48.567Z,5364
2016-11-29T08:18:27.380Z,5476
2016-11-29T08:19:06.161Z,5552
2016-11-29T08:19:44.942Z,5636
2016-11-29T08:20:23.720Z,5680
2016-11-29T08:21:02.937Z,5736
2016-11-29T08:21:41.722Z,5772
2016-11-29T08:22:20.508Z,5900
2016-11-29T08:22:59.314Z,6024
2016-11-29T08:23:38.131Z,6172
2016-11-29T08:24:16.947Z,6228
2016-11-29T08:24:56.439Z,6224
2016-11-29T08:25:35.233Z,6184
2016-11-29T08:26:14.022Z,6188
2016-11-29T08:26:52.812Z,6232
2016-11-29T08:27:31.591Z,6324
2016-11-29T08:28:10.371Z,6416
2016-11-29T08:28:49.153Z,6484
2016-11-29T08:29:27.937Z,6568
2016-11-29T08:30:06.722Z,6660
2016-11-29T08:30:45.809Z,6784
2016-11-29T08:31:24.592Z,6904
2016-11-29T08:32:03.377Z,7016
2016-11-29T08:32:42.166Z,7136
2016-11-29T08:33:20.949Z,7284
2016-11-29T08:33:59.770Z,7404
2016-11-29T08:34:38.561Z,7436
2016-11-29T08:35:17.344Z,7424
2016-11-29T08:35:56.145Z,7360
2016-11-29T08:36:34.933Z,7348
2016-11-29T08:37:13.748Z,7376
2016-11-29T08:37:52.533Z,7492
2016-11-29T08:38:31.347Z,7680
2016-11-29T08:39:10.489Z,7796
2016-11-29T08:39:49.286Z,7836
2016-11-29T08:40:28.080Z,7864
2016-11-29T08:41:06.867Z,7852
2016-11-29T08:41:45.649Z,7916
2016-11-29T08:42:24.792Z,8016
2016-11-29T08:43:03.606Z,8068
2016-11-29T08:43:42.395Z,8092
2016-11-29T08:44:21.182Z,8080
2016-11-29T08:44:59.969Z,8048
2016-11-29T08:45:38.755Z,7948
2016-11-29T08:46:17.541Z,7984
2016-11-29T08:46:56.682Z,8012
2016-11-29T08:47:35.472Z,8088
2016-11-29T08:48:14.256Z,8132
2016-11-29T08:48:53.048Z,8164
2016-11-29T08:49:31.836Z,8320
2016-11-29T08:50:10.622Z,8432
2016-11-29T08:50:49.418Z,8552
2016-11-29T08:51:28.232Z,8584
2016-11-29T08:52:07.020Z,8664
2016-11-29T08:52:45.805Z,8668
2016-11-29T08:53:24.595Z,8672
2016-11-29T08:54:03.385Z,8704
2016-11-29T08:54:42.166Z,8832
2016-11-29T08:55:20.961Z,9008
2016-11-29T08:55:59.752Z,9080
2016-11-29T08:56:38.540Z,9124
2016-11-29T08:57:17.363Z,9164
2016-11-29T08:57:56.150Z,9160
2016-11-29T08:58:34.940Z,9184
2016-11-29T08:59:13.732Z,9180
2016-11-29T08:59:52.522Z,9208
2016-11-29T09:00:31.311Z,9196
2016-11-29T09:01:10.106Z,9192
2016-11-29T09:01:48.897Z,9236
2016-11-29T09:02:27.689Z,9392
2016-11-29T09:03:06.501Z,9584
2016-11-29T09:03:45.320Z,9812
2016-11-29T09:04:24.109Z,9836
2016-11-29T09:05:02.900Z,9728
2016-11-29T09:05:41.692Z,9576
2016-11-29T09:06:20.484Z,9504
2016-11-29T09:06:59.299Z,9464
2016-11-29T09:07:38.085Z,9496
2016-11-29T09:08:16.874Z,9620
2016-11-29T09:08:55.668Z,9692
2016-11-29T09:09:34.454Z,9860
2016-11-29T09:10:13.249Z,10016
2016-11-29T09:10:52.038Z,10080
2016-11-29T09:11:30.825Z,10192
2016-11-29T09:12:09.616Z,10252
2016-11-29T09:12:48.404Z,10364
2016-11-29T09:13:27.199Z,10348
2016-11-29T09:14:05.983Z,10536
2016-11-29T09:14:44.767Z,10492
2016-11-29T09:15:23.557Z,10460
2016-11-29T09:16:02.369Z,10328
2016-11-29T09:16:41.158Z,10240
2016-11-29T09:17:19.945Z,10076
2016-11-29T09:17:58.749Z,10052
2016-11-29T09:18:37.544Z,10012
2016-11-29T09:19:16.331Z,10004